Time;durP1;ratioP1;P1;durP2;ratioP2;P2;SDS_P1;SDS_P2;PMS_P1;PMS_P2;Temp;Humidity;BMP_temperature;BMP_pressure;BME280_temperature;BME280_humidity;BME280_pressure;Samples;Min_cycle;Max_cycle;Signal;HPM_P1;HPM_P2
2022/05/06 00:01:44;;;;;;;19.42;12.48;;;12.20;99.90;;;;;;4973548;28;20035;-53
2022/05/06 00:04:10;;;;;;;16.45;10.80;;;12.10;99.90;;;;;;4977691;28;20417;-50
2022/05/06 00:06:36;;;;;;;18.35;11.38;;;11.90;99.90;;;;;;4974020;28;20046;-46
2022/05/06 00:09:03;;;;;;;17.10;11.23;;;11.90;99.90;;;;;;4975392;28;20077;-52
2022/05/06 00:11:30;;;;;;;19.20;11.77;;;11.80;99.90;;;;;;4958461;28;20045;-52
2022/05/06 00:13:55;;;;;;;24.85;14.07;;;11.70;99.90;;;;;;4974282;28;20039;-50
2022/05/06 00:16:23;;;;;;;21.85;12.63;;;11.70;99.90;;;;;;4973672;28;20566;-52
2022/05/06 00:18:49;;;;;;;18.65;12.02;;;11.60;99.90;;;;;;4973187;28;20062;-53
2022/05/06 00:21:15;;;;;;;21.13;12.38;;;11.50;99.90;;;;;;4970848;28;20092;-52
2022/05/06 00:23:41;;;;;;;23.02;12.35;;;11.50;99.90;;;;;;4975431;28;20065;-52
2022/05/06 00:26:07;;;;;;;21.98;12.73;;;11.50;99.90;;;;;;4973236;28;20045;-51
2022/05/06 00:28:33;;;;;;;23.30;13.95;;;11.50;99.90;;;;;;4975183;28;20093;-50
2022/05/06 00:31:01;;;;;;;24.27;14.23;;;11.50;99.90;;;;;;4956229;28;20047;-48
2022/05/06 00:33:27;;;;;;;21.83;13.10;;;11.50;99.90;;;;;;4969132;28;20050;-53
2022/05/06 00:35:54;;;;;;;24.23;14.75;;;11.50;99.90;;;;;;4974871;28;20420;-51
2022/05/06 00:38:20;;;;;;;22.75;13.85;;;11.60;99.90;;;;;;4973725;28;20054;-53
2022/05/06 00:40:46;;;;;;;21.95;12.63;;;11.60;99.90;;;;;;4972751;28;20053;-51
2022/05/06 00:43:12;;;;;;;27.42;14.68;;;11.60;99.90;;;;;;4973681;28;20042;-49
2022/05/06 00:46:11;;;;;;;23.33;14.32;;;11.60;99.90;;;;;;4975027;28;20067;-53
2022/05/06 00:48:37;;;;;;;25.48;15.50;;;11.60;99.90;;;;;;4939340;28;20058;-55
2022/05/06 00:51:04;;;;;;;25.08;15.15;;;11.60;99.90;;;;;;4970962;28;20527;-49
2022/05/06 00:53:29;;;;;;;30.10;15.77;;;11.60;99.90;;;;;;4972391;28;20171;-45
2022/05/06 00:55:56;;;;;;;24.17;15.43;;;11.60;99.90;;;;;;4972060;28;20059;-53
2022/05/06 00:58:29;;;;;;;25.88;15.07;;;11.60;99.90;;;;;;4955454;28;20737;-51
2022/05/06 01:00:54;;;;;;;23.13;14.45;;;11.60;99.90;;;;;;4970607;28;20053;-50
2022/05/06 01:03:20;;;;;;;28.77;15.75;;;11.60;99.90;;;;;;4970540;28;20492;-52
2022/05/06 01:05:47;;;;;;;26.92;16.55;;;11.60;99.90;;;;;;4970957;28;20042;-53
2022/05/06 01:08:13;;;;;;;24.77;16.10;;;11.60;99.90;;;;;;4972790;28;20558;-53
2022/05/06 01:10:41;;;;;;;26.30;16.40;;;11.50;99.90;;;;;;4960502;28;20042;-52
2022/05/06 01:13:07;;;;;;;28.85;16.50;;;11.50;99.90;;;;;;4970247;28;20518;-52
2022/05/06 01:15:33;;;;;;;29.20;17.13;;;11.50;99.90;;;;;;4971846;28;20142;-49
2022/05/06 01:17:58;;;;;;;28.13;17.45;;;11.50;99.90;;;;;;4970269;28;20047;-50
2022/05/06 01:20:26;;;;;;;24.25;14.45;;;11.50;99.90;;;;;;4971017;28;20046;-53
2022/05/06 01:22:57;;;;;;;28.08;17.17;;;11.50;99.90;;;;;;4967266;28;20042;-52
2022/05/06 01:25:23;;;;;;;27.03;15.83;;;11.50;99.90;;;;;;4972226;28;20475;-53
2022/05/06 01:28:01;;;;;;;25.83;16.30;;;11.50;99.90;;;;;;4971789;28;20073;-53
2022/05/06 01:30:36;;;;;;;28.67;16.83;;;11.40;99.90;;;;;;4970528;28;20039;-52
2022/05/06 01:33:06;;;;;;;26.70;16.30;;;11.50;99.90;;;;;;4967247;28;20058;-53
2022/05/06 01:35:52;;;;;;;27.58;16.38;;;11.40;99.90;;;;;;4970030;28;20086;-48
2022/05/06 01:38:38;;;;;;;26.80;17.15;;;11.40;99.90;;;;;;4970439;28;20042;-51
2022/05/06 01:41:10;;;;;;;25.25;14.93;;;11.40;99.90;;;;;;4967543;28;20054;-52
2022/05/06 01:43:43;;;;;;;27.85;15.13;;;11.40;99.90;;;;;;4969388;28;20046;-52
2022/05/06 01:46:13;;;;;;;25.02;15.52;;;11.40;99.90;;;;;;4971302;28;20047;-46
2022/05/06 01:48:41;;;;;;;23.77;15.13;;;11.30;99.90;;;;;;4963956;28;20109;-52
2022/05/06 01:51:09;;;;;;;26.90;16.80;;;11.30;99.90;;;;;;4951138;28;20054;-53
2022/05/06 01:53:35;;;;;;;30.00;15.43;;;11.20;99.90;;;;;;4971023;28;20045;-52
2022/05/06 01:56:03;;;;;;;25.92;15.82;;;11.20;99.90;;;;;;4953333;28;20089;-52
2022/05/06 01:58:28;;;;;;;29.80;16.95;;;11.20;99.90;;;;;;4952361;28;20567;-46
2022/05/06 02:00:54;;;;;;;24.45;14.57;;;11.20;99.90;;;;;;4970129;28;20039;-51
2022/05/06 02:06:04;;;;;;;18.80;10.05;;;11.00;99.90;;;;;;4964937;28;20054;-46
2022/05/06 02:08:29;;;;;;;15.57;9.00;;;11.00;99.90;;;;;;4969952;28;20465;-53
2022/05/06 02:10:55;;;;;;;19.13;11.02;;;11.00;99.90;;;;;;4968254;28;20035;-50
2022/05/06 02:13:21;;;;;;;16.08;10.30;;;10.90;99.90;;;;;;4953876;28;20034;-47
2022/05/06 02:15:46;;;;;;;16.90;10.05;;;10.80;99.90;;;;;;4952615;28;20548;-52
2022/05/06 02:18:12;;;;;;;14.77;9.65;;;10.70;99.90;;;;;;4967306;28;20364;-52
2022/05/06 02:20:38;;;;;;;13.77;8.70;;;10.70;99.90;;;;;;4952030;28;20047;-52
2022/05/06 02:23:04;;;;;;;13.30;9.00;;;10.70;99.90;;;;;;4968250;28;20039;-52
2022/05/06 02:25:30;;;;;;;12.77;8.65;;;10.60;99.90;;;;;;4967977;28;20077;-43
2022/05/06 02:27:56;;;;;;;14.27;8.27;;;10.60;99.90;;;;;;4966617;28;20504;-50
2022/05/06 02:33:15;;;;;;;10.30;7.13;;;10.50;99.90;;;;;;4966842;28;20055;-53
2022/05/06 02:35:44;;;;;;;25.02;5.68;;;10.50;99.90;;;;;;4969609;28;20062;-48
2022/05/06 02:38:11;;;;;;;31.13;7.50;;;10.40;99.90;;;;;;4934864;28;20053;-50
2022/05/06 02:40:38;;;;;;;60.95;11.13;;;10.50;99.90;;;;;;4968674;28;20054;-52
2022/05/06 02:43:07;;;;;;;187.20;16.23;;;10.50;99.90;;;;;;4968732;28;20054;-52
2022/05/06 02:45:33;;;;;;;311.20;21.27;;;10.50;99.90;;;;;;4976716;28;20081;-51
2022/05/06 02:47:59;;;;;;;317.33;21.00;;;10.60;99.90;;;;;;4966509;28;20061;-45
2022/05/06 02:50:25;;;;;;;264.33;20.13;;;10.60;99.90;;;;;;4969399;28;20035;-50
2022/05/06 02:52:51;;;;;;;377.05;29.38;;;10.60;99.90;;;;;;4969245;28;20101;-52
2022/05/06 02:55:18;;;;;;;436.80;30.65;;;10.60;99.90;;;;;;4969450;28;20042;-52
2022/05/06 02:57:43;;;;;;;430.45;29.95;;;10.60;99.90;;;;;;4950952;28;20038;-51
2022/05/06 03:00:10;;;;;;;343.17;28.40;;;10.70;99.90;;;;;;4965392;28;20058;-48
2022/05/06 03:02:36;;;;;;;405.35;26.67;;;10.70;99.90;;;;;;4948468;28;20042;-50
2022/05/06 03:05:02;;;;;;;426.95;30.52;;;10.70;99.90;;;;;;4968124;28;20030;-52
2022/05/06 03:07:28;;;;;;;242.40;21.55;;;10.70;99.90;;;;;;4968415;28;20351;-51
2022/05/06 03:09:53;;;;;;;346.25;25.33;;;10.70;99.90;;;;;;4969131;28;20069;-52
2022/05/06 03:12:20;;;;;;;323.98;23.95;;;10.60;99.90;;;;;;4970593;28;20038;-48
2022/05/06 03:14:46;;;;;;;236.63;18.98;;;10.60;99.90;;;;;;4968720;28;20042;-51
2022/05/06 03:17:12;;;;;;;407.90;27.50;;;10.50;99.90;;;;;;4949541;28;20070;-49
2022/05/06 03:19:38;;;;;;;326.02;22.92;;;10.50;99.90;;;;;;4968768;28;20077;-51
2022/05/06 03:22:05;;;;;;;193.45;17.85;;;10.50;99.90;;;;;;4967069;28;20587;-52
2022/05/06 03:24:31;;;;;;;194.15;16.45;;;10.40;99.90;;;;;;4965465;28;20042;-50
2022/05/06 03:26:57;;;;;;;251.27;19.83;;;10.40;99.90;;;;;;4967266;28;20093;-49
2022/05/06 03:29:22;;;;;;;151.80;14.25;;;10.30;99.90;;;;;;4969702;28;20472;-53
2022/05/06 03:31:48;;;;;;;302.52;21.38;;;10.30;99.90;;;;;;4968923;28;20046;-52
2022/05/06 03:34:16;;;;;;;211.60;17.65;;;10.30;99.90;;;;;;4968356;28;20063;-52
2022/05/06 03:36:41;;;;;;;166.80;15.70;;;10.20;99.90;;;;;;4968589;28;20081;-50
2022/05/06 03:39:07;;;;;;;203.45;17.30;;;10.20;99.90;;;;;;4969541;28;20117;-51
2022/05/06 03:41:33;;;;;;;111.95;14.05;;;10.30;99.90;;;;;;4970183;28;20067;-51
2022/05/06 03:43:58;;;;;;;156.57;14.40;;;10.30;99.90;;;;;;4964213;28;20034;-51
2022/05/06 03:46:24;;;;;;;130.32;14.15;;;10.30;99.90;;;;;;4951340;28;20411;-51
2022/05/06 03:48:51;;;;;;;211.10;18.92;;;10.30;99.90;;;;;;4966131;28;20708;-52
2022/05/06 03:51:22;;;;;;;151.38;17.30;;;10.40;99.90;;;;;;4951333;28;20047;-52
2022/05/06 03:54:06;;;;;;;130.98;14.50;;;10.40;99.90;;;;;;4969857;28;20647;-52
2022/05/06 03:56:31;;;;;;;95.78;11.80;;;10.50;99.90;;;;;;4964743;28;20034;-52
2022/05/06 03:58:57;;;;;;;149.73;14.35;;;10.50;99.90;;;;;;4967351;28;20097;-46
2022/05/06 04:01:22;;;;;;;254.82;20.15;;;10.60;99.90;;;;;;4968038;28;20042;-51
2022/05/06 04:03:48;;;;;;;194.50;18.00;;;10.60;99.90;;;;;;4967467;28;20049;-46
2022/05/06 04:06:14;;;;;;;148.32;16.05;;;10.60;99.90;;;;;;4950594;28;20043;-52
2022/05/06 04:08:41;;;;;;;151.45;15.80;;;10.60;99.90;;;;;;4949991;28;20122;-51
2022/05/06 04:11:12;;;;;;;224.73;18.65;;;10.60;99.90;;;;;;4966862;28;20130;-50
2022/05/06 04:13:38;;;;;;;112.85;15.25;;;10.70;99.90;;;;;;4967497;28;20085;-50
2022/05/06 04:16:04;;;;;;;123.22;15.07;;;10.70;99.90;;;;;;4967523;28;20070;-51
2022/05/06 04:18:31;;;;;;;180.20;19.35;;;10.80;99.90;;;;;;4965609;28;20066;-51
2022/05/06 04:23:41;;;;;;;94.30;15.52;;;10.90;99.90;;;;;;4963913;28;20129;-52
2022/05/06 04:26:13;;;;;;;143.02;16.95;;;11.00;99.90;;;;;;4965004;28;20138;-56
2022/05/06 04:28:40;;;;;;;161.88;18.08;;;11.00;99.90;;;;;;4949930;28;20047;-52
2022/05/06 04:31:07;;;;;;;195.15;18.75;;;11.10;99.90;;;;;;4967131;28;20042;-51
2022/05/06 04:33:37;;;;;;;90.78;15.00;;;11.10;99.90;;;;;;4949998;28;20051;-49
2022/05/06 04:36:04;;;;;;;199.38;19.77;;;11.10;99.90;;;;;;4973107;28;20500;-48
2022/05/06 04:38:30;;;;;;;145.40;15.93;;;11.10;99.90;;;;;;4966957;28;20069;-52
2022/05/06 04:41:01;;;;;;;149.50;16.10;;;11.10;99.90;;;;;;4973030;28;20047;-49
2022/05/06 04:43:27;;;;;;;79.53;15.02;;;11.20;99.90;;;;;;4970092;28;20042;-50
2022/05/06 04:45:54;;;;;;;76.55;13.82;;;11.10;99.90;;;;;;4952790;28;20517;-49
2022/05/06 04:48:20;;;;;;;98.20;15.63;;;11.10;99.90;;;;;;4971670;28;20053;-51
2022/05/06 04:50:48;;;;;;;126.38;16.90;;;11.20;99.90;;;;;;4970198;28;20035;-50
2022/05/06 04:53:15;;;;;;;177.13;20.05;;;11.20;99.90;;;;;;4971554;28;20042;-51
2022/05/06 04:55:42;;;;;;;154.85;18.95;;;11.20;99.90;;;;;;4953403;28;20083;-48
2022/05/06 04:58:09;;;;;;;200.38;20.70;;;11.10;99.90;;;;;;4971119;28;20133;-51
2022/05/06 05:00:35;;;;;;;116.07;16.75;;;11.10;99.90;;;;;;4953622;28;20605;-48
2022/05/06 05:03:02;;;;;;;145.85;16.70;;;11.00;99.90;;;;;;4972190;28;20043;-48
2022/05/06 05:05:28;;;;;;;142.98;16.70;;;11.00;99.90;;;;;;4970766;28;20046;-52
2022/05/06 05:07:54;;;;;;;147.80;16.80;;;11.10;99.90;;;;;;4972175;28;20070;-48
2022/05/06 05:10:23;;;;;;;157.20;17.88;;;11.00;99.90;;;;;;4969013;28;21052;-51
2022/05/06 05:12:50;;;;;;;207.05;21.98;;;11.00;99.90;;;;;;4972478;28;20038;-52
2022/05/06 05:15:16;;;;;;;193.40;20.13;;;11.00;99.90;;;;;;4969869;28;20527;-43
2022/05/06 05:17:42;;;;;;;99.20;16.42;;;11.00;99.90;;;;;;4972247;28;20097;-51
2022/05/06 05:20:09;;;;;;;146.13;17.90;;;11.10;99.90;;;;;;4969379;28;20129;-52
2022/05/06 05:22:38;;;;;;;142.10;19.38;;;11.10;99.90;;;;;;4972358;28;20131;-45
2022/05/06 05:25:05;;;;;;;179.35;19.58;;;11.20;99.90;;;;;;4937694;28;20043;-50
2022/05/06 05:27:31;;;;;;;120.55;18.15;;;11.20;99.90;;;;;;4971399;28;20068;-47
2022/05/06 05:29:57;;;;;;;81.43;17.88;;;11.10;99.90;;;;;;4970421;28;20035;-46
2022/05/06 05:32:24;;;;;;;180.38;22.42;;;11.10;99.90;;;;;;4951252;28;20054;-50
2022/05/06 05:34:50;;;;;;;141.55;20.92;;;11.10;99.90;;;;;;4969694;28;20460;-52
2022/05/06 05:37:16;;;;;;;94.28;19.10;;;11.10;99.90;;;;;;4970381;28;20126;-47
2022/05/06 05:39:41;;;;;;;122.55;19.88;;;11.10;99.90;;;;;;4970321;28;20031;-51
2022/05/06 05:42:07;;;;;;;98.22;20.23;;;11.10;99.90;;;;;;4969096;28;20062;-49
2022/05/06 05:50:12;;;;;;;62.78;18.10;;;11.30;99.90;;;;;;4966779;28;20535;-50
2022/05/06 05:52:38;;;;;;;41.47;16.70;;;11.30;99.90;;;;;;4970405;28;20039;-52
2022/05/06 05:55:04;;;;;;;37.67;15.40;;;11.30;99.90;;;;;;4969150;28;20085;-47
2022/05/06 05:57:30;;;;;;;47.85;15.95;;;11.40;99.90;;;;;;4969582;28;20045;-50
2022/05/06 05:59:56;;;;;;;87.68;18.70;;;11.40;99.90;;;;;;4968848;28;20047;-48
2022/05/06 06:02:22;;;;;;;47.92;16.88;;;11.40;99.90;;;;;;4969881;28;20492;-46
2022/05/06 06:04:47;;;;;;;45.97;16.70;;;11.40;99.90;;;;;;4969791;28;20067;-50
2022/05/06 06:07:13;;;;;;;38.25;15.85;;;11.50;99.90;;;;;;4968989;28;20571;-50
2022/05/06 06:09:39;;;;;;;44.10;14.90;;;11.50;99.90;;;;;;4971584;28;20100;-50
2022/05/06 06:12:05;;;;;;;32.08;13.80;;;11.60;99.90;;;;;;4970302;28;20136;-49
2022/05/06 06:14:31;;;;;;;40.13;13.82;;;11.60;99.90;;;;;;4970346;28;20046;-46
2022/05/06 06:16:56;;;;;;;50.22;15.77;;;11.70;99.90;;;;;;4968072;28;20038;-45
2022/05/06 06:19:22;;;;;;;30.92;13.52;;;11.70;99.90;;;;;;4969615;28;20034;-46
2022/05/06 06:21:48;;;;;;;32.30;12.85;;;11.70;99.90;;;;;;4970927;28;20142;-50
2022/05/06 06:24:14;;;;;;;30.45;12.10;;;11.70;99.90;;;;;;4968840;28;20125;-53
2022/05/06 06:26:40;;;;;;;32.03;12.85;;;11.80;99.90;;;;;;4967848;28;21896;-48
2022/05/06 06:29:06;;;;;;;31.98;12.80;;;11.80;99.90;;;;;;4951842;28;20058;-48
2022/05/06 06:31:32;;;;;;;26.85;11.65;;;11.80;99.90;;;;;;4969854;28;20132;-52
2022/05/06 06:33:59;;;;;;;24.27;10.57;;;11.80;99.90;;;;;;4965817;28;20051;-44
2022/05/06 06:36:25;;;;;;;28.00;11.60;;;11.90;99.90;;;;;;4968472;28;20125;-50
2022/05/06 06:38:51;;;;;;;28.60;12.00;;;12.00;99.90;;;;;;4954473;28;20093;-46
2022/05/06 06:41:18;;;;;;;25.77;10.68;;;12.00;99.90;;;;;;4966674;28;20468;-52
2022/05/06 06:43:44;;;;;;;27.05;11.63;;;12.10;99.90;;;;;;4952010;28;20045;-47
2022/05/06 06:46:09;;;;;;;24.40;11.05;;;12.10;99.90;;;;;;4968182;28;20134;-51
2022/05/06 06:48:35;;;;;;;23.88;10.02;;;12.10;99.90;;;;;;4967937;28;20043;-48
2022/05/06 06:51:00;;;;;;;25.92;11.77;;;12.10;99.90;;;;;;4968040;28;20086;-47
2022/05/06 06:53:26;;;;;;;24.85;11.45;;;12.20;99.90;;;;;;4971477;28;20034;-49
2022/05/06 06:55:52;;;;;;;19.95;10.15;;;12.20;99.90;;;;;;4949541;28;20035;-47
2022/05/06 06:58:18;;;;;;;24.92;11.45;;;12.30;99.90;;;;;;4968122;28;20551;-50
2022/05/06 07:00:44;;;;;;;26.55;11.75;;;12.20;99.90;;;;;;4962027;28;20066;-51
2022/05/06 07:03:13;;;;;;;22.55;10.93;;;12.30;99.90;;;;;;4969190;28;20035;-48
2022/05/06 07:11:52;;;;;;;23.42;11.95;;;12.30;99.90;;;;;;4964586;28;20043;-49
2022/05/06 07:13:56;;;;;;;15.23;8.77;;;12.30;99.90;;;;;;4970011;28;20330;-44
2022/05/06 07:16:26;;;;;;;14.52;8.65;;;12.20;99.90;;;;;;4968918;28;20034;-51
2022/05/06 07:18:52;;;;;;;12.85;7.78;;;12.20;99.90;;;;;;4966640;28;21621;-50
2022/05/06 07:21:18;;;;;;;13.05;8.18;;;12.20;99.90;;;;;;4967245;28;20050;-51
2022/05/06 07:23:44;;;;;;;12.63;7.85;;;12.20;99.90;;;;;;4969010;28;20118;-46
2022/05/06 07:26:10;;;;;;;12.63;7.90;;;12.20;99.90;;;;;;4964020;28;20400;-52
2022/05/06 07:28:35;;;;;;;13.30;8.75;;;12.30;99.90;;;;;;4966039;28;20042;-45
2022/05/06 07:31:01;;;;;;;13.57;8.18;;;12.30;99.90;;;;;;4964116;28;20035;-51
2022/05/06 07:33:27;;;;;;;11.68;7.97;;;12.40;99.90;;;;;;4946495;28;20051;-47
2022/05/06 07:35:52;;;;;;;9.50;6.68;;;12.40;99.90;;;;;;4965539;28;20022;-51
2022/05/06 07:38:18;;;;;;;9.02;6.43;;;12.50;99.90;;;;;;4968282;28;20042;-51
2022/05/06 07:40:44;;;;;;;8.30;5.75;;;12.60;99.90;;;;;;4967786;28;20435;-50
2022/05/06 07:43:09;;;;;;;9.05;6.65;;;12.60;99.90;;;;;;4966207;28;20043;-51
2022/05/06 07:45:35;;;;;;;9.63;7.00;;;12.70;99.90;;;;;;4960851;28;20050;-49
2022/05/06 07:48:03;;;;;;;10.93;7.82;;;12.70;99.90;;;;;;4965937;28;20042;-51
2022/05/06 07:50:31;;;;;;;10.13;6.72;;;12.70;99.90;;;;;;4967736;28;20110;-51
2022/05/06 07:52:58;;;;;;;10.20;6.78;;;12.80;99.90;;;;;;4962698;28;20476;-51
2022/05/06 07:55:24;;;;;;;11.70;7.47;;;12.70;99.90;;;;;;4965395;28;20043;-47
2022/05/06 07:57:50;;;;;;;10.20;7.07;;;12.70;99.90;;;;;;4961460;28;20972;-43
2022/05/06 08:00:19;;;;;;;10.82;7.00;;;12.70;99.90;;;;;;4962031;28;21839;-48
2022/05/06 08:05:32;;;;;;;8.55;6.15;;;12.80;99.90;;;;;;4951474;28;20047;-52
2022/05/06 08:07:58;;;;;;;7.68;5.90;;;13.00;99.90;;;;;;4950402;28;20045;-48
2022/05/06 08:10:23;;;;;;;8.43;5.57;;;13.10;99.90;;;;;;4967544;28;20042;-48
2022/05/06 08:12:49;;;;;;;9.10;5.97;;;13.30;99.90;;;;;;4952281;28;20129;-46
2022/05/06 08:15:15;;;;;;;8.48;6.32;;;13.40;99.90;;;;;;4968390;28;20035;-48
2022/05/06 08:17:41;;;;;;;10.55;7.38;;;13.50;99.90;;;;;;4952802;28;20054;-52
2022/05/06 08:20:08;;;;;;;9.75;6.78;;;13.60;99.90;;;;;;4963568;28;20628;-52
2022/05/06 08:22:36;;;;;;;10.55;6.70;;;13.60;99.90;;;;;;4970191;28;20130;-52
2022/05/06 08:25:03;;;;;;;10.25;7.00;;;13.60;99.90;;;;;;4969745;28;20073;-51
2022/05/06 08:27:28;;;;;;;10.23;7.28;;;13.60;99.90;;;;;;4970204;28;20067;-50
2022/05/06 08:29:55;;;;;;;9.63;6.82;;;13.50;99.90;;;;;;4969509;28;20088;-48
2022/05/06 08:32:20;;;;;;;10.10;6.78;;;13.70;99.90;;;;;;4971988;28;20058;-52
2022/05/06 08:34:47;;;;;;;11.13;7.90;;;13.90;99.90;;;;;;4972307;28;20061;-50
2022/05/06 08:37:13;;;;;;;7.65;5.90;;;14.10;99.90;;;;;;4964918;28;20041;-51
2022/05/06 08:39:38;;;;;;;9.60;6.10;;;14.20;99.90;;;;;;4967461;28;20042;-52
2022/05/06 08:42:06;;;;;;;11.02;7.70;;;14.50;99.90;;;;;;5022636;23;21218;-79
2022/05/06 08:52:48;;;;;;;9.18;6.68;;;15.00;99.90;;;;;;5012923;23;20098;-41
2022/05/06 08:55:14;;;;;;;8.13;6.28;;;15.10;99.90;;;;;;5000622;28;20072;-40
2022/05/06 08:57:41;;;;;;;8.32;6.10;;;15.20;99.90;;;;;;4998584;28;20481;-39
2022/05/06 09:00:09;;;;;;;9.10;5.55;;;15.20;99.90;;;;;;4989800;28;20054;-41
2022/05/06 09:02:39;;;;;;;8.43;6.15;;;15.30;99.90;;;;;;5010467;28;20042;-40
2022/05/06 09:05:18;;;;;;;10.32;6.80;;;15.40;99.90;;;;;;4998705;28;20411;-41
2022/05/06 09:08:04;;;;;;;8.80;6.22;;;15.40;99.90;;;;;;5006817;28;20057;-40
2022/05/06 09:10:30;;;;;;;8.00;5.85;;;15.50;99.90;;;;;;4982440;28;20056;-39
2022/05/06 09:12:57;;;;;;;7.65;5.65;;;15.50;99.90;;;;;;5007721;28;20034;-40
2022/05/06 09:18:09;;;;;;;6.95;5.07;;;15.70;99.90;;;;;;4996990;28;20046;-40
2022/05/06 09:20:36;;;;;;;6.57;4.82;;;15.70;99.90;;;;;;5009198;28;20070;-40
2022/05/06 09:23:27;;;;;;;7.10;4.88;;;15.80;99.90;;;;;;5007174;28;20092;-40
2022/05/06 09:25:54;;;;;;;8.40;5.50;;;15.90;99.90;;;;;;4996696;28;20050;-41
2022/05/06 09:28:28;;;;;;;7.00;5.40;;;16.10;99.90;;;;;;5003547;28;20141;-41
2022/05/06 09:31:10;;;;;;;6.85;5.32;;;16.20;99.90;;;;;;5001257;28;20141;-41
2022/05/06 09:33:40;;;;;;;7.43;5.73;;;16.50;99.90;;;;;;5004681;28;20106;-40
2022/05/06 09:36:22;;;;;;;6.95;5.22;;;16.80;99.90;;;;;;4999568;28;20300;-40
2022/05/06 09:39:11;;;;;;;7.68;5.20;;;16.90;99.90;;;;;;5009628;28;20056;-41
2022/05/06 09:41:38;;;;;;;8.32;5.78;;;17.00;99.90;;;;;;4985558;28;20172;-40
2022/05/06 09:44:09;;;;;;;12.15;5.85;;;17.10;99.90;;;;;;5003591;28;20056;-40
2022/05/06 09:46:36;;;;;;;6.68;5.05;;;17.10;99.90;;;;;;5009327;28;20494;-41
2022/05/06 09:49:03;;;;;;;7.88;5.40;;;17.10;99.90;;;;;;5005640;28;20040;-41
2022/05/06 09:51:34;;;;;;;10.13;5.45;;;17.10;99.20;;;;;;5004882;28;20513;-40
2022/05/06 09:54:02;;;;;;;10.27;5.30;;;17.10;97.70;;;;;;5002965;28;20080;-40
2022/05/06 09:56:28;;;;;;;7.15;5.93;;;17.10;97.60;;;;;;4989148;28;20053;-40
2022/05/06 09:58:56;;;;;;;7.57;5.50;;;17.10;97.20;;;;;;5004184;28;20132;-40
2022/05/06 10:01:22;;;;;;;8.35;5.82;;;17.10;97.10;;;;;;4989010;28;20041;-40
2022/05/06 10:03:48;;;;;;;6.90;5.38;;;17.10;96.90;;;;;;5001445;28;20364;-44
2022/05/06 10:06:13;;;;;;;7.45;5.30;;;17.20;97.20;;;;;;4998321;28;20483;-40
2022/05/06 10:08:48;;;;;;;10.32;5.82;;;17.40;97.30;;;;;;5000528;28;20049;-40
2022/05/06 10:11:18;;;;;;;7.30;5.63;;;17.40;96.20;;;;;;5007752;28;20133;-39
2022/05/06 10:13:46;;;;;;;8.18;5.40;;;17.40;96.00;;;;;;5002432;28;20119;-40
2022/05/06 10:16:12;;;;;;;6.72;5.32;;;17.50;96.10;;;;;;5005522;28;20148;-39
2022/05/06 10:18:42;;;;;;;7.65;4.82;;;17.70;95.80;;;;;;5007059;28;20124;-39
2022/05/06 10:21:12;;;;;;;6.88;5.25;;;17.90;94.80;;;;;;5001538;28;20547;-45
2022/05/06 10:23:49;;;;;;;7.55;5.20;;;18.00;94.10;;;;;;4987346;28;20030;-40
2022/05/06 10:26:37;;;;;;;7.78;4.72;;;18.30;93.70;;;;;;5004431;28;20053;-39
2022/05/06 10:34:54;;;;;;;7.65;5.85;;;18.40;91.40;;;;;;4994874;28;20046;-40
2022/05/06 10:37:19;;;;;;;7.50;5.88;;;18.60;91.40;;;;;;5002874;28;20072;-40
2022/05/06 10:39:45;;;;;;;9.63;6.45;;;18.70;90.40;;;;;;5007551;28;20097;-41
2022/05/06 10:42:16;;;;;;;8.13;5.82;;;18.70;90.10;;;;;;5002378;28;20072;-40
2022/05/06 10:44:42;;;;;;;7.40;5.50;;;18.70;87.60;;;;;;5005808;28;20037;-40
2022/05/06 10:47:11;;;;;;;9.48;6.00;;;18.70;87.40;;;;;;5009717;28;20081;-39
2022/05/06 10:49:40;;;;;;;9.73;5.80;;;18.70;84.10;;;;;;5007534;28;20044;-39
2022/05/06 10:52:24;;;;;;;7.97;5.80;;;18.80;85.60;;;;;;4988302;28;20065;-41
2022/05/06 10:54:55;;;;;;;7.75;4.95;;;18.90;82.20;;;;;;5002827;28;20045;-41
2022/05/06 10:57:22;;;;;;;6.25;4.63;;;18.90;82.30;;;;;;4988647;28;20046;-40
2022/05/06 10:59:56;;;;;;;8.00;5.15;;;19.00;80.50;;;;;;5005589;28;20042;-44
2022/05/06 11:02:27;;;;;;;6.75;4.45;;;19.00;78.90;;;;;;4997901;28;20551;-43
2022/05/06 11:04:55;;;;;;;7.07;4.30;;;19.10;78.70;;;;;;4996599;28;20085;-40
2022/05/06 11:07:21;;;;;;;5.10;3.28;;;19.20;78.50;;;;;;5002887;28;20053;-39
2022/05/06 11:09:47;;;;;;;6.63;4.00;;;19.40;75.30;;;;;;5006528;28;20052;-40
2022/05/06 11:12:45;;;;;;;6.40;3.85;;;19.40;73.60;;;;;;5004498;28;20093;-41
2022/05/06 11:15:14;;;;;;;5.72;3.60;;;19.50;70.10;;;;;;5000471;28;20116;-39
2022/05/06 11:17:41;;;;;;;6.53;4.93;;;19.70;72.70;;;;;;5002764;28;20038;-40
2022/05/06 11:20:23;;;;;;;8.57;5.13;;;19.70;70.70;;;;;;5005641;28;20092;-40
2022/05/06 11:22:50;;;;;;;10.90;6.05;;;19.80;70.50;;;;;;5007624;28;20579;-40
2022/05/06 11:25:16;;;;;;;9.70;6.20;;;19.80;71.00;;;;;;4999211;28;20049;-40
2022/05/06 11:27:42;;;;;;;7.43;5.40;;;19.80;69.10;;;;;;5000315;28;20042;-40
2022/05/06 11:30:09;;;;;;;7.65;5.35;;;19.80;69.80;;;;;;4981057;28;20071;-41
2022/05/06 11:32:35;;;;;;;7.53;6.03;;;19.70;69.90;;;;;;5000406;28;20037;-41
2022/05/06 11:35:11;;;;;;;8.48;5.80;;;19.70;69.50;;;;;;5003757;28;20042;-41
2022/05/06 11:37:40;;;;;;;6.53;4.82;;;19.70;68.10;;;;;;5002868;28;20478;-42
2022/05/06 11:40:32;;;;;;;7.18;4.78;;;19.70;67.90;;;;;;5003942;28;20095;-40
2022/05/06 11:43:02;;;;;;;7.97;5.30;;;19.80;67.60;;;;;;5001394;28;20533;-42
2022/05/06 11:48:15;;;;;;;6.57;5.10;;;20.00;66.70;;;;;;5003842;28;20047;-41
2022/05/06 11:50:42;;;;;;;7.30;4.88;;;20.10;65.20;;;;;;4985642;28;20042;-41
2022/05/06 11:53:13;;;;;;;7.45;4.97;;;20.20;68.00;;;;;;5005755;28;20054;-40
2022/05/06 11:55:42;;;;;;;7.78;4.07;;;20.30;65.40;;;;;;5006576;28;20494;-43
2022/05/06 11:58:12;;;;;;;5.22;3.45;;;20.40;65.10;;;;;;4998886;28;20045;-40
2022/05/06 12:00:38;;;;;;;5.10;3.55;;;20.50;64.70;;;;;;4999776;28;20042;-40
2022/05/06 12:03:06;;;;;;;6.43;2.67;;;20.60;63.60;;;;;;5002522;28;20083;-42
2022/05/06 12:05:36;;;;;;;3.25;2.00;;;20.70;61.30;;;;;;5001543;28;20449;-41
2022/05/06 12:08:02;;;;;;;4.55;1.90;;;20.70;58.70;;;;;;5007928;28;20129;-41
2022/05/06 12:10:33;;;;;;;3.20;1.92;;;20.80;57.70;;;;;;5005834;28;20458;-41
2022/05/06 12:13:10;;;;;;;4.80;2.40;;;20.80;57.40;;;;;;5004131;28;20079;-41
2022/05/06 12:15:41;;;;;;;4.28;2.53;;;20.70;56.80;;;;;;5011766;28;20045;-42
2022/05/06 12:18:25;;;;;;;4.72;2.53;;;20.80;57.10;;;;;;5004421;28;20056;-42
2022/05/06 12:20:51;;;;;;;4.32;2.20;;;20.70;55.20;;;;;;5002954;28;20517;-44
2022/05/06 12:23:28;;;;;;;3.25;1.70;;;20.60;55.70;;;;;;5004898;28;20033;-42
2022/05/06 12:25:55;;;;;;;3.75;2.15;;;20.80;56.60;;;;;;5003559;28;20077;-42
2022/05/06 12:28:21;;;;;;;4.97;2.10;;;21.10;57.00;;;;;;5000868;28;20096;-41
2022/05/06 12:30:55;;;;;;;2.63;1.50;;;21.20;56.20;;;;;;5001006;28;20445;-41
2022/05/06 12:33:22;;;;;;;3.42;2.00;;;21.30;55.40;;;;;;5003082;28;20038;-43
2022/05/06 12:36:05;;;;;;;2.00;0.95;;;21.40;54.80;;;;;;5003528;28;20031;-41
2022/05/06 12:38:36;;;;;;;1.88;1.08;;;21.40;53.10;;;;;;4997334;28;20034;-42
2022/05/06 12:41:26;;;;;;;3.35;1.13;;;21.50;54.00;;;;;;5002175;28;20453;-40
2022/05/06 12:43:54;;;;;;;3.30;1.35;;;21.50;53.40;;;;;;5004358;28;20048;-41
2022/05/06 12:46:36;;;;;;;2.35;1.20;;;21.50;54.30;;;;;;5002649;28;20675;-41
2022/05/06 12:51:46;;;;;;;4.47;1.98;;;21.80;53.30;;;;;;4996356;28;20301;-42
2022/05/06 12:54:12;;;;;;;5.25;1.63;;;21.70;53.20;;;;;;5004412;28;20114;-40
2022/05/06 12:56:39;;;;;;;5.38;1.83;;;21.70;53.40;;;;;;5002703;28;20454;-42
2022/05/06 12:59:06;;;;;;;4.28;1.75;;;21.80;53.60;;;;;;5002380;28;20095;-43
2022/05/06 13:01:32;;;;;;;5.00;2.17;;;21.90;52.90;;;;;;5007214;28;20117;-43
2022/05/06 13:03:58;;;;;;;5.30;1.85;;;22.00;52.10;;;;;;5005466;28;20034;-43
2022/05/06 13:06:24;;;;;;;2.95;1.80;;;22.00;51.70;;;;;;4988530;28;20787;-41
2022/05/06 13:08:50;;;;;;;2.95;1.52;;;22.00;51.50;;;;;;5006575;28;20184;-42
2022/05/06 13:11:16;;;;;;;3.03;1.75;;;22.10;51.10;;;;;;5007044;28;20129;-41
2022/05/06 13:13:42;;;;;;;5.32;2.15;;;22.10;50.60;;;;;;5004415;28;20425;-42
2022/05/06 13:16:08;;;;;;;4.75;1.83;;;21.90;50.40;;;;;;4998314;28;20187;-41
2022/05/06 13:18:35;;;;;;;3.30;1.80;;;22.10;51.40;;;;;;5002060;28;20034;-40
2022/05/06 13:21:01;;;;;;;4.93;2.05;;;22.20;50.90;;;;;;5005841;28;20125;-43
2022/05/06 13:23:26;;;;;;;3.78;1.88;;;22.50;50.70;;;;;;5010728;28;20041;-42